Terminal Aerodrome Forecast
Issued by NWS

Home | Current Version | Previous Version | Text Only | Print | Product List | Glossary On
Versions: 1 2 3 4 5 6 7 8 9 10 11 12
803
FTUS44 KTSA 120524
TAFFYV
TAF
KFYV 120524Z 1206/1306 VRB03KT P6SM SCT200
     FM121600 34008G15KT P6SM FEW020 SCT120 BKN200
     FM122200 36009KT P6SM BKN200=

USA.gov is the U.S. government's official web portal to all federal, state and local government web resources and services.